Terminal Aerodrome Forecast
Issued by NWS

Home | Current Version | Previous Version | Text Only | Print | Product List | Glossary On
Versions: 1 2 3 4 5 6 7 8 9 10 11 12
000
FTUS46 KSGX 222324
TAFSNA
TAF
KSNA 222324Z 2300/2324 22010KT P6SM VCSH SCT030 BKN070
     FM230300 VRB04KT P6SM VCSH BKN025
     FM231600 20006KT P6SM BKN030
     FM231900 22009KT P6SM SCT030=

USA.gov is the U.S. government's official web portal to all federal, state and local government web resources and services.